Apache Creek, New Mexico
Current Conditions -  °F | °C
As of 6:35 AM on Friday 24 Oct 2014 (Local Time) from KJTC Reporting Station
Clear Clear  
Wind Chill: 37°   Ceiling: Unl
Heat Index: 37°   Visibility: 10mi
Dew Point: 32°   Wind: 3mph
Humidity: 81%   Direction: 160°SSE
Pressure: 30.4"   Gusts: NA
Location:  33.6665°N, 108.765°W
Report Text: KJTC 241235Z AUTO 16003KT 10SM CLR 03/00 A3040 RMK AO2
Loading
Personal Weather Stations






























Interactive Weather Map
Tropical Storm Tracking
New forecast layout! Learn more

10-Day Weather Forecast

Advertisements
Track Severe Weather on mobile